createdAt,value
2022-07-26T00:00:16.687Z,22.90
2022-07-26T00:02:47.820Z,22.90
2022-07-26T00:08:22.743Z,23.00
2022-07-26T00:10:54.071Z,23.00
2022-07-26T00:13:22.513Z,23.00
2022-07-26T00:15:53.252Z,23.00
2022-07-26T00:18:23.205Z,23.10
2022-07-26T00:23:34.563Z,23.10
2022-07-26T00:26:02.448Z,23.00
2022-07-26T00:28:33.538Z,23.00
2022-07-26T00:31:05.481Z,23.00
2022-07-26T00:33:34.629Z,22.90
2022-07-26T00:36:02.383Z,22.90
2022-07-26T00:38:32.042Z,22.90
2022-07-26T00:41:01.592Z,22.90
2022-07-26T00:43:31.562Z,22.90
2022-07-26T00:46:02.500Z,22.80
2022-07-26T00:48:32.778Z,22.90
2022-07-26T00:51:02.553Z,23.00
2022-07-26T00:53:31.243Z,23.00
2022-07-26T00:56:02.428Z,22.90
2022-07-26T00:58:35.364Z,22.90
2022-07-26T01:01:06.347Z,23.00
2022-07-26T01:03:39.454Z,23.20
2022-07-26T01:06:12.727Z,23.70
2022-07-26T01:08:42.638Z,24.00
2022-07-26T01:11:12.900Z,24.30
2022-07-26T01:16:35.425Z,24.70
2022-07-26T01:19:06.808Z,24.60
2022-07-26T01:21:34.614Z,24.40
2022-07-26T01:24:06.049Z,24.10
2022-07-26T01:26:34.629Z,23.90
2022-07-26T01:29:05.734Z,23.70
2022-07-26T01:31:34.544Z,23.50
2022-07-26T01:34:04.471Z,23.50
2022-07-26T01:36:33.988Z,23.40
2022-07-26T01:39:04.133Z,23.40
2022-07-26T01:41:37.404Z,23.30
2022-07-26T01:44:08.586Z,23.30
2022-07-26T01:46:39.179Z,23.30
2022-07-26T01:49:09.190Z,23.20
2022-07-26T01:51:38.454Z,23.20
2022-07-26T01:54:10.689Z,23.20
2022-07-26T01:56:39.374Z,23.20
2022-07-26T01:59:13.071Z,23.10
2022-07-26T02:01:43.668Z,23.10
2022-07-26T02:04:34.373Z,23.20
2022-07-26T02:07:05.500Z,23.20
2022-07-26T02:09:39.487Z,23.00
2022-07-26T02:12:08.693Z,23.00
2022-07-26T02:14:38.412Z,22.90
2022-07-26T02:17:09.970Z,22.90
2022-07-26T02:19:47.193Z,22.70
2022-07-26T02:22:17.860Z,22.70
2022-07-26T02:24:47.339Z,22.60
2022-07-26T02:27:18.347Z,22.40
2022-07-26T02:29:47.843Z,22.30
2022-07-26T02:32:17.470Z,22.20
2022-07-26T02:34:47.611Z,22.00
2022-07-26T02:37:17.490Z,21.80
2022-07-26T02:39:45.157Z,21.70
2022-07-26T02:42:15.729Z,21.60
2022-07-26T02:44:46.968Z,21.50
2022-07-26T02:47:16.562Z,21.40
2022-07-26T02:49:44.082Z,21.40
2022-07-26T02:52:13.903Z,21.20
2022-07-26T02:54:43.435Z,21.20
2022-07-26T02:57:14.489Z,21.10
2022-07-26T02:59:43.398Z,21.20
2022-07-26T03:02:12.520Z,21.00
2022-07-26T03:07:27.132Z,21.10
2022-07-26T03:09:59.927Z,21.00
2022-07-26T03:12:32.209Z,20.90
2022-07-26T03:15:00.407Z,21.00
2022-07-26T03:17:32.139Z,21.00
2022-07-26T03:20:02.618Z,21.00
2022-07-26T03:22:33.822Z,21.10
2022-07-26T03:25:01.465Z,21.10
2022-07-26T03:27:31.155Z,21.10
2022-07-26T03:30:00.077Z,21.10
2022-07-26T03:32:27.567Z,21.10
2022-07-26T03:34:57.680Z,21.00
2022-07-26T03:37:45.009Z,21.10
2022-07-26T03:40:19.325Z,21.00
2022-07-26T03:42:48.600Z,21.00
2022-07-26T03:45:18.485Z,21.00
2022-07-26T03:47:47.042Z,21.10
2022-07-26T03:50:17.954Z,21.00
2022-07-26T03:52:46.384Z,20.80
2022-07-26T03:55:35.087Z,20.90
2022-07-26T03:58:04.408Z,20.90
2022-07-26T04:00:33.240Z,20.80
2022-07-26T04:03:05.167Z,20.90
2022-07-26T04:05:34.317Z,20.90
2022-07-26T04:08:05.445Z,20.70
2022-07-26T04:10:34.364Z,20.80
2022-07-26T04:13:04.141Z,20.80
2022-07-26T04:15:32.492Z,20.80
2022-07-26T04:18:03.179Z,20.80
2022-07-26T04:20:32.776Z,20.80
2022-07-26T04:23:03.670Z,20.90
2022-07-26T04:25:40.785Z,20.90
2022-07-26T04:28:10.447Z,20.90
2022-07-26T04:30:41.920Z,20.90
2022-07-26T04:33:10.484Z,20.90
2022-07-26T04:35:40.453Z,20.90
2022-07-26T04:38:09.474Z,20.90
2022-07-26T04:40:40.713Z,20.80
2022-07-26T04:43:10.232Z,20.80
2022-07-26T04:45:48.490Z,20.80
2022-07-26T04:48:19.567Z,20.70
2022-07-26T04:50:47.413Z,20.80
2022-07-26T04:53:18.208Z,20.70
2022-07-26T04:55:48.181Z,20.70
2022-07-26T04:58:19.143Z,20.70
2022-07-26T05:01:08.935Z,20.70
2022-07-26T05:03:38.513Z,20.70
2022-07-26T05:06:10.275Z,20.60
2022-07-26T05:08:39.413Z,20.60
2022-07-26T05:11:09.279Z,20.60
2022-07-26T05:13:40.100Z,20.60
2022-07-26T05:16:11.971Z,20.60
2022-07-26T05:18:45.882Z,20.60
2022-07-26T05:21:19.063Z,20.60
2022-07-26T05:23:47.884Z,20.50
2022-07-26T05:26:18.751Z,20.40
2022-07-26T05:28:48.852Z,20.40
2022-07-26T05:31:18.515Z,20.40
2022-07-26T05:33:48.086Z,20.40
2022-07-26T05:36:18.639Z,20.30
2022-07-26T05:38:56.515Z,20.30
2022-07-26T05:41:26.471Z,20.30
2022-07-26T05:44:05.159Z,20.30
2022-07-26T05:46:44.308Z,20.40
2022-07-26T05:49:14.475Z,20.30
2022-07-26T05:51:43.575Z,20.30
2022-07-26T05:54:14.674Z,20.30
2022-07-26T05:56:43.382Z,20.30
2022-07-26T05:59:10.827Z,20.30
2022-07-26T06:01:40.651Z,20.30
2022-07-26T06:04:13.316Z,20.40
2022-07-26T06:06:42.352Z,20.40
2022-07-26T06:09:13.916Z,20.30
2022-07-26T06:11:43.939Z,20.20
2022-07-26T06:14:14.651Z,20.30
2022-07-26T06:16:48.503Z,20.30
2022-07-26T06:19:18.166Z,20.20
2022-07-26T06:21:51.158Z,20.30
2022-07-26T06:24:19.471Z,20.30
2022-07-26T06:26:56.344Z,20.40
2022-07-26T06:29:32.455Z,20.40
2022-07-26T06:32:02.779Z,20.40
2022-07-26T06:34:32.764Z,20.40
2022-07-26T06:37:01.676Z,20.30
2022-07-26T06:39:32.711Z,20.40
2022-07-26T06:42:01.542Z,20.40
2022-07-26T06:44:31.572Z,20.30
2022-07-26T06:47:00.677Z,20.40
2022-07-26T06:49:31.649Z,20.40
2022-07-26T06:52:00.903Z,20.50
2022-07-26T06:54:33.796Z,20.40
2022-07-26T06:57:04.659Z,20.50
2022-07-26T06:59:32.043Z,20.60
2022-07-26T07:02:01.852Z,20.60
2022-07-26T07:04:32.987Z,20.50
2022-07-26T07:07:05.763Z,20.60
2022-07-26T07:12:19.925Z,20.70
2022-07-26T07:14:47.841Z,20.70
2022-07-26T07:17:20.333Z,20.70
2022-07-26T07:19:49.447Z,20.70
2022-07-26T07:22:17.950Z,20.70
2022-07-26T07:24:46.644Z,20.80
2022-07-26T07:27:14.164Z,20.80
2022-07-26T07:29:43.871Z,20.80
2022-07-26T07:32:18.390Z,20.80
2022-07-26T07:34:49.011Z,20.70
2022-07-26T07:37:20.288Z,20.80
2022-07-26T07:39:48.948Z,20.80
2022-07-26T07:42:19.385Z,20.70
2022-07-26T07:44:47.448Z,20.70
2022-07-26T07:47:16.258Z,20.60
2022-07-26T07:49:43.651Z,20.70
2022-07-26T07:52:11.119Z,20.70
2022-07-26T07:54:38.730Z,20.80
2022-07-26T07:57:06.413Z,20.80
2022-07-26T07:59:34.010Z,20.80
2022-07-26T08:02:06.912Z,20.80
2022-07-26T08:04:34.410Z,20.90
2022-07-26T08:07:02.467Z,20.90
2022-07-26T08:09:29.963Z,20.90
2022-07-26T08:12:02.466Z,20.90
2022-07-26T08:14:30.426Z,20.90
2022-07-26T08:16:57.961Z,20.90
2022-07-26T08:19:29.295Z,20.90
2022-07-26T08:22:09.875Z,20.90
2022-07-26T08:24:38.209Z,20.90
2022-07-26T08:27:05.687Z,20.90
2022-07-26T08:29:33.343Z,20.90
2022-07-26T08:32:02.267Z,20.90
2022-07-26T08:34:29.750Z,20.80
2022-07-26T08:37:15.888Z,20.80
2022-07-26T08:39:45.494Z,20.80
2022-07-26T08:42:22.755Z,20.80
2022-07-26T08:44:51.984Z,20.80
2022-07-26T08:47:37.857Z,20.70
2022-07-26T08:50:09.586Z,20.80
2022-07-26T08:52:45.521Z,20.90
2022-07-26T08:55:19.093Z,20.90
2022-07-26T08:57:47.223Z,20.90
2022-07-26T09:00:26.435Z,20.90
2022-07-26T09:02:55.664Z,21.00
2022-07-26T09:05:32.960Z,21.00
2022-07-26T09:08:01.017Z,21.00
2022-07-26T09:10:38.861Z,21.00
2022-07-26T09:13:06.838Z,21.10
2022-07-26T09:15:35.617Z,21.10
2022-07-26T09:18:03.109Z,21.10
2022-07-26T09:20:32.515Z,21.20
2022-07-26T09:23:06.038Z,21.20
2022-07-26T09:25:41.906Z,21.20
2022-07-26T09:28:31.062Z,21.30
2022-07-26T09:31:03.245Z,21.30
2022-07-26T09:33:48.827Z,21.30
2022-07-26T09:36:17.850Z,21.30
2022-07-26T09:38:50.341Z,21.30
2022-07-26T09:41:20.573Z,21.40
2022-07-26T09:43:53.711Z,21.50
2022-07-26T09:46:26.181Z,21.60
2022-07-26T09:49:12.462Z,21.60
2022-07-26T09:51:46.161Z,21.70
2022-07-26T09:54:38.283Z,21.80
2022-07-26T09:57:06.255Z,22.00
2022-07-26T09:59:33.985Z,22.00
2022-07-26T10:02:01.528Z,22.10
2022-07-26T10:04:28.999Z,22.10
2022-07-26T10:07:00.241Z,22.10
2022-07-26T10:09:40.135Z,22.20
2022-07-26T10:12:10.147Z,22.20
2022-07-26T10:14:46.727Z,22.30
2022-07-26T10:17:31.528Z,22.30
2022-07-26T10:20:09.474Z,22.30
2022-07-26T10:22:46.589Z,22.40
2022-07-26T10:25:20.392Z,22.40
2022-07-26T10:27:57.639Z,22.50
2022-07-26T10:30:35.379Z,22.60
2022-07-26T10:33:07.886Z,22.60
2022-07-26T10:35:44.463Z,22.60
2022-07-26T10:38:13.442Z,22.70
2022-07-26T10:41:08.744Z,22.70
2022-07-26T10:43:41.128Z,22.80
2022-07-26T10:46:18.732Z,22.90
2022-07-26T10:49:04.549Z,22.90
2022-07-26T10:51:37.423Z,23.00
2022-07-26T10:54:08.123Z,23.00
2022-07-26T10:56:36.405Z,23.10
2022-07-26T10:59:04.898Z,23.30
2022-07-26T11:01:37.744Z,23.50
2022-07-26T11:04:07.847Z,23.60
2022-07-26T11:06:35.526Z,23.80
2022-07-26T11:09:11.570Z,23.90
2022-07-26T11:11:39.915Z,24.00
2022-07-26T11:14:17.563Z,24.10
2022-07-26T11:16:49.270Z,24.20
2022-07-26T11:19:26.448Z,24.30
2022-07-26T11:21:57.608Z,24.40
2022-07-26T11:24:26.865Z,24.40
2022-07-26T11:26:54.713Z,24.40
2022-07-26T11:29:39.180Z,24.50
2022-07-26T11:32:21.978Z,24.60
2022-07-26T11:35:03.808Z,24.70
2022-07-26T11:37:31.405Z,24.70
2022-07-26T11:40:01.711Z,24.90
2022-07-26T11:42:29.590Z,25.00
2022-07-26T11:44:57.282Z,25.20
2022-07-26T11:47:26.385Z,25.30
2022-07-26T11:50:15.323Z,25.40
2022-07-26T11:52:42.240Z,25.40
2022-07-26T11:55:10.423Z,25.50
2022-07-26T11:57:38.168Z,25.50
2022-07-26T12:00:06.310Z,25.50
2022-07-26T12:02:39.993Z,25.40
2022-07-26T12:05:20.297Z,25.40
2022-07-26T12:08:05.159Z,25.50
2022-07-26T12:10:32.933Z,25.50
2022-07-26T12:13:16.861Z,25.50
2022-07-26T12:15:51.662Z,25.70
2022-07-26T12:18:29.203Z,25.80
2022-07-26T12:21:06.242Z,26.10
2022-07-26T12:23:53.098Z,26.30
2022-07-26T12:26:29.487Z,26.50
2022-07-26T12:28:59.862Z,26.60
2022-07-26T12:31:32.867Z,26.50
2022-07-26T12:34:00.672Z,26.60
2022-07-26T12:36:30.804Z,26.60
2022-07-26T12:39:00.292Z,26.60
2022-07-26T12:41:37.933Z,26.40
2022-07-26T12:44:07.154Z,26.00
2022-07-26T12:46:35.791Z,25.30
2022-07-26T12:49:04.471Z,24.60
2022-07-26T12:51:32.457Z,24.00
2022-07-26T12:53:59.976Z,23.30
2022-07-26T12:56:27.529Z,23.00
2022-07-26T12:59:01.024Z,22.60
2022-07-26T13:01:29.963Z,22.40
2022-07-26T13:03:57.855Z,22.30
2022-07-26T13:06:26.459Z,22.10
2022-07-26T13:08:55.059Z,21.80
2022-07-26T13:11:22.586Z,21.90
2022-07-26T13:13:50.009Z,21.70
2022-07-26T13:16:17.748Z,21.70
2022-07-26T13:18:47.074Z,21.60
2022-07-26T13:21:14.592Z,21.50
2022-07-26T13:23:44.341Z,21.40
2022-07-26T13:26:13.047Z,21.40
2022-07-26T13:28:40.745Z,21.40
2022-07-26T13:31:08.403Z,21.30
2022-07-26T13:33:39.302Z,21.20
2022-07-26T13:44:16.868Z,21.20
2022-07-26T13:46:47.310Z,21.20
2022-07-26T13:49:14.967Z,21.10
2022-07-26T13:51:57.450Z,21.00
2022-07-26T13:54:32.072Z,21.00
2022-07-26T13:57:02.456Z,21.00
2022-07-26T13:59:30.237Z,20.90
2022-07-26T14:01:59.273Z,20.90
2022-07-26T14:04:29.094Z,20.90
2022-07-26T14:06:57.074Z,21.00
2022-07-26T14:09:26.861Z,21.00
2022-07-26T14:11:54.948Z,20.90
2022-07-26T14:14:23.541Z,21.00
2022-07-26T14:16:52.448Z,21.00
2022-07-26T14:19:20.968Z,21.00
2022-07-26T14:21:59.726Z,20.90
2022-07-26T14:24:28.781Z,20.90
2022-07-26T14:26:59.211Z,20.90
2022-07-26T14:29:27.704Z,20.90
2022-07-26T14:31:55.985Z,20.90
2022-07-26T14:34:24.524Z,20.90
2022-07-26T14:36:51.999Z,20.70
2022-07-26T14:39:19.423Z,20.70
2022-07-26T14:41:47.895Z,20.70
2022-07-26T14:44:15.391Z,20.60
2022-07-26T14:46:43.946Z,20.70
2022-07-26T14:49:11.995Z,20.60
2022-07-26T14:51:40.028Z,20.50
2022-07-26T14:54:07.554Z,20.50
2022-07-26T14:56:37.588Z,20.50
2022-07-26T14:59:05.020Z,20.60
2022-07-26T15:01:32.989Z,20.70
2022-07-26T15:04:00.398Z,20.70
2022-07-26T15:06:27.893Z,20.70
2022-07-26T15:08:55.385Z,20.50
2022-07-26T15:11:22.761Z,20.50
2022-07-26T15:17:54.119Z,20.60
2022-07-26T15:21:37.907Z,20.50
2022-07-26T15:29:02.419Z,20.50
2022-07-26T15:31:36.631Z,20.40
2022-07-26T15:34:07.599Z,20.40
2022-07-26T15:36:35.206Z,20.40
2022-07-26T15:39:16.112Z,20.30
2022-07-26T15:41:47.027Z,20.30
2022-07-26T15:44:16.782Z,20.40
2022-07-26T15:46:48.554Z,20.40
2022-07-26T15:49:17.685Z,20.50
2022-07-26T15:51:45.475Z,20.40
2022-07-26T15:54:16.042Z,20.50
2022-07-26T15:56:44.360Z,20.40
2022-07-26T15:59:11.871Z,20.50
2022-07-26T16:01:39.612Z,20.40
2022-07-26T16:04:08.537Z,20.40
2022-07-26T16:06:36.144Z,20.40
2022-07-26T16:09:20.118Z,20.40
2022-07-26T16:11:49.142Z,20.30
2022-07-26T16:14:17.379Z,20.30
2022-07-26T16:16:45.581Z,20.30
2022-07-26T16:19:13.740Z,20.30
2022-07-26T16:21:41.626Z,20.30
2022-07-26T16:24:10.154Z,20.30
2022-07-26T16:26:37.528Z,20.30
2022-07-26T16:29:06.341Z,20.40
2022-07-26T16:31:34.322Z,20.40
2022-07-26T16:34:02.943Z,20.30
2022-07-26T16:36:30.429Z,20.30
2022-07-26T16:38:57.857Z,20.30
2022-07-26T16:41:25.276Z,20.30
2022-07-26T16:43:53.784Z,20.40
2022-07-26T16:46:21.792Z,20.60
2022-07-26T16:48:49.386Z,20.70
2022-07-26T16:51:16.918Z,20.80
2022-07-26T16:53:45.873Z,20.80
2022-07-26T16:56:13.277Z,20.70
2022-07-26T16:58:40.917Z,20.80
2022-07-26T17:01:08.913Z,20.70
2022-07-26T17:03:36.478Z,20.70
2022-07-26T17:06:06.687Z,20.70
2022-07-26T17:08:34.586Z,20.70
2022-07-26T17:11:02.152Z,20.60
2022-07-26T17:13:29.673Z,20.60
2022-07-26T17:15:57.232Z,20.50
2022-07-26T17:18:24.876Z,20.50
2022-07-26T17:20:52.468Z,20.50
2022-07-26T17:23:20.015Z,20.50
2022-07-26T17:25:50.286Z,20.40
2022-07-26T17:28:18.634Z,20.50
2022-07-26T17:30:48.218Z,20.40
2022-07-26T17:33:16.659Z,20.40
2022-07-26T17:35:44.079Z,20.40
2022-07-26T17:38:13.681Z,20.40
2022-07-26T17:40:43.809Z,20.40
2022-07-26T17:43:13.617Z,20.40
2022-07-26T17:45:43.545Z,20.50
2022-07-26T17:48:11.309Z,20.40
2022-07-26T17:50:40.827Z,20.30
2022-07-26T17:53:14.515Z,20.40
2022-07-26T17:55:46.385Z,20.40
2022-07-26T17:58:15.650Z,20.40
2022-07-26T18:00:45.687Z,20.30
2022-07-26T18:03:13.523Z,20.40
2022-07-26T18:05:48.832Z,20.40
2022-07-26T18:08:19.893Z,20.30
2022-07-26T18:10:58.442Z,20.30
2022-07-26T18:13:27.962Z,20.20
2022-07-26T18:15:55.987Z,20.20
2022-07-26T18:18:28.758Z,20.20
2022-07-26T18:20:57.997Z,20.10
2022-07-26T18:23:27.223Z,20.10
2022-07-26T18:25:56.039Z,20.10
2022-07-26T18:28:28.411Z,20.00
2022-07-26T18:30:58.284Z,19.90
2022-07-26T18:33:27.531Z,19.90
2022-07-26T18:38:44.637Z,19.80
2022-07-26T18:41:14.549Z,19.80
2022-07-26T18:43:44.913Z,19.70
2022-07-26T18:46:17.569Z,19.70
2022-07-26T18:48:48.693Z,19.80
2022-07-26T18:51:17.154Z,19.70
2022-07-26T18:53:46.712Z,19.60
2022-07-26T18:56:15.437Z,19.60
2022-07-26T18:58:44.320Z,19.60
2022-07-26T19:01:12.834Z,19.50
2022-07-26T19:03:41.529Z,19.50
2022-07-26T19:06:11.837Z,19.50
2022-07-26T19:08:40.144Z,19.50
2022-07-26T19:11:07.634Z,19.40
2022-07-26T19:13:35.197Z,19.40
2022-07-26T19:16:05.266Z,19.40
2022-07-26T19:18:33.959Z,19.40
2022-07-26T19:21:02.701Z,19.30
2022-07-26T19:23:31.323Z,19.20
2022-07-26T19:26:01.022Z,19.20
2022-07-26T19:28:30.660Z,19.20
2022-07-26T19:30:58.224Z,19.10
2022-07-26T19:33:31.239Z,19.00
2022-07-26T19:36:01.079Z,19.00
2022-07-26T19:38:29.730Z,18.90
2022-07-26T19:40:57.086Z,18.90
2022-07-26T19:43:27.940Z,18.90
2022-07-26T19:46:01.082Z,18.90
2022-07-26T19:48:30.218Z,18.90
2022-07-26T19:50:59.516Z,18.90
2022-07-26T19:53:27.492Z,18.90
2022-07-26T19:55:56.782Z,18.90
2022-07-26T19:58:27.001Z,18.90
2022-07-26T20:00:55.143Z,18.80
2022-07-26T20:03:25.101Z,18.80
2022-07-26T20:05:56.127Z,18.80
2022-07-26T20:08:25.107Z,18.70
2022-07-26T20:10:54.651Z,18.70
2022-07-26T20:13:24.900Z,18.70
2022-07-26T20:15:54.892Z,18.70
2022-07-26T20:18:27.663Z,18.70
2022-07-26T20:20:59.261Z,18.70
2022-07-26T20:23:31.443Z,18.60
2022-07-26T20:28:45.956Z,18.70
2022-07-26T20:31:14.567Z,18.60
2022-07-26T20:33:46.014Z,18.60
2022-07-26T20:36:15.992Z,18.60
2022-07-26T20:38:49.536Z,18.60
2022-07-26T20:41:22.585Z,18.50
2022-07-26T20:43:54.949Z,18.40
2022-07-26T20:46:24.524Z,18.40
2022-07-26T20:48:56.355Z,18.40
2022-07-26T20:51:25.510Z,18.40
2022-07-26T20:53:55.013Z,18.30
2022-07-26T20:56:25.034Z,18.30
2022-07-26T20:58:54.620Z,18.30
2022-07-26T21:01:25.194Z,18.30
2022-07-26T21:03:54.553Z,18.30
2022-07-26T21:09:09.779Z,18.30
2022-07-26T21:11:39.897Z,18.30
2022-07-26T21:14:10.805Z,18.40
2022-07-26T21:16:39.394Z,18.40
2022-07-26T21:19:10.700Z,18.30
2022-07-26T21:21:39.504Z,18.30
2022-07-26T21:24:12.447Z,18.30
2022-07-26T21:26:41.680Z,18.30
2022-07-26T21:29:12.972Z,18.20
2022-07-26T21:31:41.476Z,18.20
2022-07-26T21:34:18.927Z,18.10
2022-07-26T21:36:46.610Z,18.10
2022-07-26T21:39:16.215Z,18.10
2022-07-26T21:41:45.674Z,18.20
2022-07-26T21:44:15.118Z,18.30
2022-07-26T21:46:45.812Z,18.30
2022-07-26T21:49:14.463Z,18.30
2022-07-26T21:51:42.443Z,18.30
2022-07-26T21:54:11.035Z,18.30
2022-07-26T21:56:39.839Z,18.20
2022-07-26T21:59:11.585Z,18.10
2022-07-26T22:01:43.462Z,18.10
2022-07-26T22:04:12.064Z,18.10
2022-07-26T22:06:39.460Z,18.10
2022-07-26T22:09:11.827Z,18.10
2022-07-26T22:11:49.756Z,18.10
2022-07-26T22:14:18.777Z,18.10
2022-07-26T22:16:49.203Z,18.10
2022-07-26T22:19:25.816Z,18.10
2022-07-26T22:21:55.820Z,18.20
2022-07-26T22:24:26.968Z,18.20
2022-07-26T22:26:59.579Z,18.10
2022-07-26T22:29:39.764Z,18.10
2022-07-26T22:32:11.903Z,18.10
2022-07-26T22:34:43.071Z,18.20
2022-07-26T22:37:15.373Z,18.10
2022-07-26T22:39:45.807Z,18.20
2022-07-26T22:42:16.319Z,18.20
2022-07-26T22:44:45.427Z,18.20
2022-07-26T22:47:16.020Z,18.20
2022-07-26T22:49:45.499Z,18.10
2022-07-26T22:52:16.061Z,18.00
2022-07-26T22:54:45.672Z,18.00
2022-07-26T22:57:14.924Z,18.00
2022-07-26T22:59:42.500Z,18.00
2022-07-26T23:02:13.500Z,18.10
2022-07-26T23:04:42.593Z,18.00
2022-07-26T23:07:11.852Z,18.00
2022-07-26T23:09:42.007Z,18.00
2022-07-26T23:12:10.969Z,18.00
2022-07-26T23:14:41.001Z,18.00
2022-07-26T23:17:10.947Z,17.90
2022-07-26T23:19:41.072Z,17.90
2022-07-26T23:22:10.830Z,17.90
2022-07-26T23:24:40.859Z,17.80
2022-07-26T23:27:18.064Z,17.80
2022-07-26T23:29:50.051Z,17.90
2022-07-26T23:32:18.578Z,17.90
2022-07-26T23:34:46.999Z,17.90
2022-07-26T23:37:16.834Z,17.90
2022-07-26T23:42:28.503Z,17.90
2022-07-26T23:44:56.840Z,17.80
2022-07-26T23:47:25.497Z,17.70
2022-07-26T23:49:56.888Z,17.70
2022-07-26T23:52:27.624Z,17.80
2022-07-26T23:54:57.569Z,17.80
2022-07-26T23:57:29.142Z,17.70
2022-07-26T23:59:57.850Z,17.80
